sensor_id;sensor_type;location;lat;lon;timestamp;P1;durP1;ratioP1;P2;durP2;ratioP2
73150;SDS011;61354;50.758;6.106;2023-04-24T00:01:13;2.33;;;1.35;;
73150;SDS011;61354;50.758;6.106;2023-04-24T00:03:40;3.15;;;1.40;;
73150;SDS011;61354;50.758;6.106;2023-04-24T00:06:06;1.80;;;1.10;;
73150;SDS011;61354;50.758;6.106;2023-04-24T00:08:33;2.50;;;1.27;;
73150;SDS011;61354;50.758;6.106;2023-04-24T00:11:00;2.45;;;1.20;;
73150;SDS011;61354;50.758;6.106;2023-04-24T00:13:25;3.05;;;1.55;;
73150;SDS011;61354;50.758;6.106;2023-04-24T00:15:53;2.50;;;1.52;;
73150;SDS011;61354;50.758;6.106;2023-04-24T00:18:19;3.30;;;1.70;;
73150;SDS011;61354;50.758;6.106;2023-04-24T00:20:44;3.63;;;1.70;;
73150;SDS011;61354;50.758;6.106;2023-04-24T00:23:12;5.18;;;2.00;;
73150;SDS011;61354;50.758;6.106;2023-04-24T00:25:38;5.15;;;2.40;;
73150;SDS011;61354;50.758;6.106;2023-04-24T00:28:03;6.53;;;2.88;;
73150;SDS011;61354;50.758;6.106;2023-04-24T00:30:29;4.35;;;2.85;;
73150;SDS011;61354;50.758;6.106;2023-04-24T00:32:55;6.13;;;2.80;;
73150;SDS011;61354;50.758;6.106;2023-04-24T00:35:20;5.18;;;2.65;;
73150;SDS011;61354;50.758;6.106;2023-04-24T00:37:46;4.68;;;2.70;;
73150;SDS011;61354;50.758;6.106;2023-04-24T00:40:12;4.47;;;2.42;;
73150;SDS011;61354;50.758;6.106;2023-04-24T00:42:38;4.65;;;2.55;;
73150;SDS011;61354;50.758;6.106;2023-04-24T00:45:05;4.85;;;2.63;;
73150;SDS011;61354;50.758;6.106;2023-04-24T00:47:32;6.28;;;3.25;;
73150;SDS011;61354;50.758;6.106;2023-04-24T00:50:00;5.90;;;3.00;;
73150;SDS011;61354;50.758;6.106;2023-04-24T00:52:30;4.72;;;3.03;;
73150;SDS011;61354;50.758;6.106;2023-04-24T00:54:57;5.32;;;3.20;;
73150;SDS011;61354;50.758;6.106;2023-04-24T00:57:23;5.90;;;3.25;;
73150;SDS011;61354;50.758;6.106;2023-04-24T00:59:50;5.95;;;3.00;;
73150;SDS011;61354;50.758;6.106;2023-04-24T01:02:17;5.60;;;3.45;;
73150;SDS011;61354;50.758;6.106;2023-04-24T01:04:43;5.22;;;3.00;;
73150;SDS011;61354;50.758;6.106;2023-04-24T01:07:08;4.72;;;3.03;;
73150;SDS011;61354;50.758;6.106;2023-04-24T01:09:37;5.53;;;2.80;;
73150;SDS011;61354;50.758;6.106;2023-04-24T01:12:05;5.65;;;3.13;;
73150;SDS011;61354;50.758;6.106;2023-04-24T01:14:31;6.90;;;3.53;;
73150;SDS011;61354;50.758;6.106;2023-04-24T01:16:58;5.45;;;3.08;;
73150;SDS011;61354;50.758;6.106;2023-04-24T01:19:24;5.05;;;3.00;;
73150;SDS011;61354;50.758;6.106;2023-04-24T01:21:50;7.47;;;3.42;;
73150;SDS011;61354;50.758;6.106;2023-04-24T01:24:19;4.95;;;3.03;;
73150;SDS011;61354;50.758;6.106;2023-04-24T01:26:45;5.93;;;3.20;;
73150;SDS011;61354;50.758;6.106;2023-04-24T01:29:11;7.20;;;3.65;;
73150;SDS011;61354;50.758;6.106;2023-04-24T01:31:37;6.20;;;3.28;;
73150;SDS011;61354;50.758;6.106;2023-04-24T01:34:04;5.45;;;3.05;;
73150;SDS011;61354;50.758;6.106;2023-04-24T01:36:31;8.35;;;3.80;;
73150;SDS011;61354;50.758;6.106;2023-04-24T01:38:58;7.20;;;3.70;;
73150;SDS011;61354;50.758;6.106;2023-04-24T01:41:23;7.05;;;3.15;;
73150;SDS011;61354;50.758;6.106;2023-04-24T01:43:50;7.13;;;3.75;;
73150;SDS011;61354;50.758;6.106;2023-04-24T01:46:15;7.35;;;4.30;;
73150;SDS011;61354;50.758;6.106;2023-04-24T01:48:41;6.18;;;3.90;;
73150;SDS011;61354;50.758;6.106;2023-04-24T01:51:07;7.13;;;3.70;;
73150;SDS011;61354;50.758;6.106;2023-04-24T01:53:32;8.02;;;3.38;;
73150;SDS011;61354;50.758;6.106;2023-04-24T01:55:58;6.60;;;3.70;;
73150;SDS011;61354;50.758;6.106;2023-04-24T01:58:23;7.85;;;3.50;;
73150;SDS011;61354;50.758;6.106;2023-04-24T02:00:49;7.75;;;3.78;;
73150;SDS011;61354;50.758;6.106;2023-04-24T02:03:15;6.07;;;3.50;;
73150;SDS011;61354;50.758;6.106;2023-04-24T02:05:43;6.65;;;3.83;;
73150;SDS011;61354;50.758;6.106;2023-04-24T02:08:09;6.70;;;3.60;;
73150;SDS011;61354;50.758;6.106;2023-04-24T02:10:35;7.13;;;3.75;;
73150;SDS011;61354;50.758;6.106;2023-04-24T02:13:01;7.00;;;3.53;;
73150;SDS011;61354;50.758;6.106;2023-04-24T02:15:26;7.13;;;3.50;;
73150;SDS011;61354;50.758;6.106;2023-04-24T02:17:55;8.07;;;4.03;;
73150;SDS011;61354;50.758;6.106;2023-04-24T02:20:20;5.93;;;3.42;;
73150;SDS011;61354;50.758;6.106;2023-04-24T02:22:46;6.28;;;4.03;;
73150;SDS011;61354;50.758;6.106;2023-04-24T02:25:11;6.97;;;3.90;;
73150;SDS011;61354;50.758;6.106;2023-04-24T02:27:37;8.50;;;4.10;;
73150;SDS011;61354;50.758;6.106;2023-04-24T02:30:03;7.40;;;4.20;;
73150;SDS011;61354;50.758;6.106;2023-04-24T02:32:28;9.95;;;4.82;;
73150;SDS011;61354;50.758;6.106;2023-04-24T02:34:56;9.05;;;4.93;;
73150;SDS011;61354;50.758;6.106;2023-04-24T02:37:21;7.82;;;4.40;;
73150;SDS011;61354;50.758;6.106;2023-04-24T02:39:47;7.90;;;4.45;;
73150;SDS011;61354;50.758;6.106;2023-04-24T02:42:12;8.05;;;4.40;;
73150;SDS011;61354;50.758;6.106;2023-04-24T02:44:38;11.15;;;4.65;;
73150;SDS011;61354;50.758;6.106;2023-04-24T02:47:03;8.43;;;4.25;;
73150;SDS011;61354;50.758;6.106;2023-04-24T02:49:29;6.85;;;4.47;;
73150;SDS011;61354;50.758;6.106;2023-04-24T02:51:54;7.50;;;4.25;;
73150;SDS011;61354;50.758;6.106;2023-04-24T02:54:20;8.25;;;3.35;;
73150;SDS011;61354;50.758;6.106;2023-04-24T02:56:45;7.05;;;3.92;;
73150;SDS011;61354;50.758;6.106;2023-04-24T02:59:11;7.38;;;4.32;;
73150;SDS011;61354;50.758;6.106;2023-04-24T03:01:37;6.57;;;3.90;;
73150;SDS011;61354;50.758;6.106;2023-04-24T03:04:02;6.95;;;3.53;;
73150;SDS011;61354;50.758;6.106;2023-04-24T03:06:28;8.32;;;4.18;;
73150;SDS011;61354;50.758;6.106;2023-04-24T03:08:56;7.03;;;3.67;;
73150;SDS011;61354;50.758;6.106;2023-04-24T03:11:22;6.93;;;3.25;;
73150;SDS011;61354;50.758;6.106;2023-04-24T03:13:47;5.20;;;3.00;;
73150;SDS011;61354;50.758;6.106;2023-04-24T03:16:13;8.07;;;4.15;;
73150;SDS011;61354;50.758;6.106;2023-04-24T03:18:38;5.50;;;3.55;;
73150;SDS011;61354;50.758;6.106;2023-04-24T03:21:04;8.80;;;3.85;;
73150;SDS011;61354;50.758;6.106;2023-04-24T03:23:29;6.15;;;3.33;;
73150;SDS011;61354;50.758;6.106;2023-04-24T03:25:55;8.05;;;3.78;;
73150;SDS011;61354;50.758;6.106;2023-04-24T03:28:21;5.43;;;3.67;;
73150;SDS011;61354;50.758;6.106;2023-04-24T03:30:46;6.65;;;4.10;;
73150;SDS011;61354;50.758;6.106;2023-04-24T03:33:12;7.75;;;4.07;;
73150;SDS011;61354;50.758;6.106;2023-04-24T03:35:37;9.30;;;4.00;;
73150;SDS011;61354;50.758;6.106;2023-04-24T03:38:03;6.18;;;3.60;;
73150;SDS011;61354;50.758;6.106;2023-04-24T03:40:29;5.88;;;3.13;;
73150;SDS011;61354;50.758;6.106;2023-04-24T03:42:55;6.78;;;4.28;;
73150;SDS011;61354;50.758;6.106;2023-04-24T03:45:21;7.43;;;4.00;;
73150;SDS011;61354;50.758;6.106;2023-04-24T03:47:46;6.95;;;3.25;;
73150;SDS011;61354;50.758;6.106;2023-04-24T03:50:12;7.32;;;4.25;;
73150;SDS011;61354;50.758;6.106;2023-04-24T03:52:37;7.88;;;4.38;;
73150;SDS011;61354;50.758;6.106;2023-04-24T03:55:03;7.05;;;4.15;;
73150;SDS011;61354;50.758;6.106;2023-04-24T03:57:29;8.73;;;4.32;;
73150;SDS011;61354;50.758;6.106;2023-04-24T03:59:55;7.13;;;4.15;;
73150;SDS011;61354;50.758;6.106;2023-04-24T04:02:20;6.72;;;3.97;;
73150;SDS011;61354;50.758;6.106;2023-04-24T04:04:46;5.55;;;3.83;;
73150;SDS011;61354;50.758;6.106;2023-04-24T04:07:11;5.30;;;3.65;;
73150;SDS011;61354;50.758;6.106;2023-04-24T04:09:38;7.50;;;4.55;;
73150;SDS011;61354;50.758;6.106;2023-04-24T04:12:03;6.80;;;3.85;;
73150;SDS011;61354;50.758;6.106;2023-04-24T04:14:29;7.82;;;4.10;;
73150;SDS011;61354;50.758;6.106;2023-04-24T04:16:55;6.03;;;3.88;;
73150;SDS011;61354;50.758;6.106;2023-04-24T04:19:20;9.02;;;4.18;;
73150;SDS011;61354;50.758;6.106;2023-04-24T04:21:46;7.75;;;4.40;;
73150;SDS011;61354;50.758;6.106;2023-04-24T04:24:17;7.32;;;4.05;;
73150;SDS011;61354;50.758;6.106;2023-04-24T04:26:42;9.07;;;4.68;;
73150;SDS011;61354;50.758;6.106;2023-04-24T04:29:11;8.70;;;4.40;;
73150;SDS011;61354;50.758;6.106;2023-04-24T04:31:37;8.52;;;4.60;;
73150;SDS011;61354;50.758;6.106;2023-04-24T04:34:02;7.13;;;4.82;;
73150;SDS011;61354;50.758;6.106;2023-04-24T04:36:28;8.38;;;3.97;;
73150;SDS011;61354;50.758;6.106;2023-04-24T04:38:54;5.00;;;3.20;;
73150;SDS011;61354;50.758;6.106;2023-04-24T04:41:20;7.43;;;4.13;;
73150;SDS011;61354;50.758;6.106;2023-04-24T04:43:45;8.40;;;4.82;;
73150;SDS011;61354;50.758;6.106;2023-04-24T04:46:12;6.78;;;3.85;;
73150;SDS011;61354;50.758;6.106;2023-04-24T04:48:38;6.18;;;3.60;;
73150;SDS011;61354;50.758;6.106;2023-04-24T04:51:04;10.43;;;4.80;;
73150;SDS011;61354;50.758;6.106;2023-04-24T04:53:30;7.68;;;4.10;;
73150;SDS011;61354;50.758;6.106;2023-04-24T04:55:56;7.05;;;3.97;;
73150;SDS011;61354;50.758;6.106;2023-04-24T04:58:22;7.60;;;3.95;;
73150;SDS011;61354;50.758;6.106;2023-04-24T05:00:47;6.25;;;4.10;;
73150;SDS011;61354;50.758;6.106;2023-04-24T05:03:13;7.75;;;4.05;;
73150;SDS011;61354;50.758;6.106;2023-04-24T05:05:39;6.55;;;3.22;;
73150;SDS011;61354;50.758;6.106;2023-04-24T05:08:06;8.73;;;3.92;;
73150;SDS011;61354;50.758;6.106;2023-04-24T05:10:33;6.55;;;3.47;;
73150;SDS011;61354;50.758;6.106;2023-04-24T05:12:59;6.57;;;3.60;;
73150;SDS011;61354;50.758;6.106;2023-04-24T05:15:25;5.45;;;3.35;;
73150;SDS011;61354;50.758;6.106;2023-04-24T05:17:51;2.67;;;1.98;;
73150;SDS011;61354;50.758;6.106;2023-04-24T05:20:16;4.57;;;3.03;;
73150;SDS011;61354;50.758;6.106;2023-04-24T05:22:42;4.07;;;2.35;;
73150;SDS011;61354;50.758;6.106;2023-04-24T05:25:08;4.55;;;2.50;;
73150;SDS011;61354;50.758;6.106;2023-04-24T05:27:34;5.28;;;2.65;;
73150;SDS011;61354;50.758;6.106;2023-04-24T05:29:59;5.05;;;2.58;;
73150;SDS011;61354;50.758;6.106;2023-04-24T05:32:25;3.85;;;2.35;;
73150;SDS011;61354;50.758;6.106;2023-04-24T05:34:52;6.30;;;3.13;;
73150;SDS011;61354;50.758;6.106;2023-04-24T05:37:17;7.25;;;3.13;;
73150;SDS011;61354;50.758;6.106;2023-04-24T05:39:43;6.20;;;3.10;;
73150;SDS011;61354;50.758;6.106;2023-04-24T05:42:09;4.80;;;2.58;;
73150;SDS011;61354;50.758;6.106;2023-04-24T05:44:34;5.18;;;2.83;;
73150;SDS011;61354;50.758;6.106;2023-04-24T05:47:00;6.28;;;2.97;;
73150;SDS011;61354;50.758;6.106;2023-04-24T05:49:26;4.13;;;1.98;;
73150;SDS011;61354;50.758;6.106;2023-04-24T05:51:51;5.22;;;2.92;;
73150;SDS011;61354;50.758;6.106;2023-04-24T05:54:17;6.85;;;3.25;;
73150;SDS011;61354;50.758;6.106;2023-04-24T05:56:42;5.63;;;3.22;;
73150;SDS011;61354;50.758;6.106;2023-04-24T05:59:08;4.28;;;2.47;;
73150;SDS011;61354;50.758;6.106;2023-04-24T06:01:36;5.93;;;2.80;;
73150;SDS011;61354;50.758;6.106;2023-04-24T06:04:03;4.22;;;2.60;;
73150;SDS011;61354;50.758;6.106;2023-04-24T06:06:29;2.97;;;1.98;;
73150;SDS011;61354;50.758;6.106;2023-04-24T06:08:54;6.28;;;3.03;;
73150;SDS011;61354;50.758;6.106;2023-04-24T06:11:20;4.75;;;2.78;;
73150;SDS011;61354;50.758;6.106;2023-04-24T06:13:46;4.85;;;2.75;;
73150;SDS011;61354;50.758;6.106;2023-04-24T06:16:12;4.60;;;2.53;;
73150;SDS011;61354;50.758;6.106;2023-04-24T06:18:37;4.75;;;2.72;;
73150;SDS011;61354;50.758;6.106;2023-04-24T06:21:03;4.28;;;2.38;;
73150;SDS011;61354;50.758;6.106;2023-04-24T06:23:29;3.20;;;2.28;;
73150;SDS011;61354;50.758;6.106;2023-04-24T06:25:57;3.75;;;2.28;;
73150;SDS011;61354;50.758;6.106;2023-04-24T06:28:23;5.18;;;2.15;;
73150;SDS011;61354;50.758;6.106;2023-04-24T06:30:48;3.80;;;2.15;;
73150;SDS011;61354;50.758;6.106;2023-04-24T06:33:14;4.43;;;2.38;;
73150;SDS011;61354;50.758;6.106;2023-04-24T06:35:39;3.25;;;1.92;;
73150;SDS011;61354;50.758;6.106;2023-04-24T06:38:05;4.20;;;2.20;;
73150;SDS011;61354;50.758;6.106;2023-04-24T06:40:31;2.60;;;1.40;;
73150;SDS011;61354;50.758;6.106;2023-04-24T06:42:57;3.53;;;1.90;;
73150;SDS011;61354;50.758;6.106;2023-04-24T06:45:25;3.75;;;1.85;;
73150;SDS011;61354;50.758;6.106;2023-04-24T06:47:51;3.40;;;1.77;;
73150;SDS011;61354;50.758;6.106;2023-04-24T06:50:16;1.85;;;1.23;;
73150;SDS011;61354;50.758;6.106;2023-04-24T06:52:42;3.13;;;1.65;;
73150;SDS011;61354;50.758;6.106;2023-04-24T06:55:08;3.75;;;2.05;;
73150;SDS011;61354;50.758;6.106;2023-04-24T06:57:33;2.60;;;1.50;;
73150;SDS011;61354;50.758;6.106;2023-04-24T06:59:59;3.72;;;1.85;;
73150;SDS011;61354;50.758;6.106;2023-04-24T07:02:25;3.22;;;1.85;;
73150;SDS011;61354;50.758;6.106;2023-04-24T07:04:50;3.47;;;1.80;;
73150;SDS011;61354;50.758;6.106;2023-04-24T07:07:16;2.40;;;1.33;;
73150;SDS011;61354;50.758;6.106;2023-04-24T07:09:42;3.15;;;1.58;;
73150;SDS011;61354;50.758;6.106;2023-04-24T07:12:10;2.50;;;1.58;;
73150;SDS011;61354;50.758;6.106;2023-04-24T07:14:36;4.18;;;2.05;;
73150;SDS011;61354;50.758;6.106;2023-04-24T07:17:03;4.20;;;1.92;;
73150;SDS011;61354;50.758;6.106;2023-04-24T07:19:29;4.88;;;2.15;;
73150;SDS011;61354;50.758;6.106;2023-04-24T07:21:55;2.63;;;1.60;;
73150;SDS011;61354;50.758;6.106;2023-04-24T07:24:23;3.75;;;2.15;;
73150;SDS011;61354;50.758;6.106;2023-04-24T07:26:50;3.95;;;2.17;;
73150;SDS011;61354;50.758;6.106;2023-04-24T07:29:17;5.25;;;2.42;;
73150;SDS011;61354;50.758;6.106;2023-04-24T07:31:42;4.90;;;2.40;;
73150;SDS011;61354;50.758;6.106;2023-04-24T07:34:08;2.40;;;1.75;;
73150;SDS011;61354;50.758;6.106;2023-04-24T07:36:33;3.63;;;1.90;;
73150;SDS011;61354;50.758;6.106;2023-04-24T07:38:59;3.33;;;2.03;;
73150;SDS011;61354;50.758;6.106;2023-04-24T07:41:25;3.15;;;2.15;;
73150;SDS011;61354;50.758;6.106;2023-04-24T07:43:52;7.20;;;3.05;;
73150;SDS011;61354;50.758;6.106;2023-04-24T07:46:19;5.60;;;2.70;;
73150;SDS011;61354;50.758;6.106;2023-04-24T07:48:45;7.68;;;3.40;;
73150;SDS011;61354;50.758;6.106;2023-04-24T07:51:13;4.68;;;2.65;;
73150;SDS011;61354;50.758;6.106;2023-04-24T07:53:40;6.53;;;3.45;;
73150;SDS011;61354;50.758;6.106;2023-04-24T07:56:06;7.22;;;3.40;;
73150;SDS011;61354;50.758;6.106;2023-04-24T07:58:32;4.15;;;2.38;;
73150;SDS011;61354;50.758;6.106;2023-04-24T08:00:57;7.45;;;3.58;;
73150;SDS011;61354;50.758;6.106;2023-04-24T08:03:23;5.60;;;3.25;;
73150;SDS011;61354;50.758;6.106;2023-04-24T08:05:49;6.32;;;3.35;;
73150;SDS011;61354;50.758;6.106;2023-04-24T08:08:16;5.45;;;2.97;;
73150;SDS011;61354;50.758;6.106;2023-04-24T08:10:42;4.90;;;2.55;;
73150;SDS011;61354;50.758;6.106;2023-04-24T08:13:07;7.30;;;3.72;;
73150;SDS011;61354;50.758;6.106;2023-04-24T08:15:33;6.20;;;3.05;;
73150;SDS011;61354;50.758;6.106;2023-04-24T08:17:59;4.47;;;2.90;;
73150;SDS011;61354;50.758;6.106;2023-04-24T08:20:25;6.63;;;3.70;;
73150;SDS011;61354;50.758;6.106;2023-04-24T08:22:50;5.78;;;3.13;;
73150;SDS011;61354;50.758;6.106;2023-04-24T08:25:16;6.05;;;3.33;;
73150;SDS011;61354;50.758;6.106;2023-04-24T08:27:43;4.85;;;2.65;;
73150;SDS011;61354;50.758;6.106;2023-04-24T08:30:08;5.78;;;2.90;;
73150;SDS011;61354;50.758;6.106;2023-04-24T08:32:35;5.80;;;2.97;;
73150;SDS011;61354;50.758;6.106;2023-04-24T08:35:01;4.30;;;2.60;;
73150;SDS011;61354;50.758;6.106;2023-04-24T08:37:27;6.40;;;2.67;;
73150;SDS011;61354;50.758;6.106;2023-04-24T08:39:53;4.88;;;2.63;;
73150;SDS011;61354;50.758;6.106;2023-04-24T08:42:19;4.40;;;2.30;;
73150;SDS011;61354;50.758;6.106;2023-04-24T08:44:45;4.32;;;2.05;;
73150;SDS011;61354;50.758;6.106;2023-04-24T08:47:11;3.58;;;2.30;;
73150;SDS011;61354;50.758;6.106;2023-04-24T08:49:38;6.90;;;2.60;;
73150;SDS011;61354;50.758;6.106;2023-04-24T08:52:07;5.63;;;2.97;;
73150;SDS011;61354;50.758;6.106;2023-04-24T08:54:36;5.95;;;2.95;;
73150;SDS011;61354;50.758;6.106;2023-04-24T08:57:02;6.25;;;3.30;;
73150;SDS011;61354;50.758;6.106;2023-04-24T08:59:29;5.32;;;2.80;;
73150;SDS011;61354;50.758;6.106;2023-04-24T09:01:56;6.10;;;3.47;;
73150;SDS011;61354;50.758;6.106;2023-04-24T09:04:23;5.95;;;3.17;;
73150;SDS011;61354;50.758;6.106;2023-04-24T09:06:50;6.72;;;4.38;;
73150;SDS011;61354;50.758;6.106;2023-04-24T09:09:20;7.60;;;4.30;;
73150;SDS011;61354;50.758;6.106;2023-04-24T09:11:48;7.28;;;3.58;;
73150;SDS011;61354;50.758;6.106;2023-04-24T09:14:15;7.68;;;3.70;;
73150;SDS011;61354;50.758;6.106;2023-04-24T09:16:41;7.72;;;4.70;;
73150;SDS011;61354;50.758;6.106;2023-04-24T09:19:07;6.93;;;3.75;;
73150;SDS011;61354;50.758;6.106;2023-04-24T09:21:33;7.10;;;4.13;;
73150;SDS011;61354;50.758;6.106;2023-04-24T09:24:01;9.73;;;5.22;;
73150;SDS011;61354;50.758;6.106;2023-04-24T09:26:29;6.10;;;3.95;;
73150;SDS011;61354;50.758;6.106;2023-04-24T09:28:58;8.43;;;4.20;;
73150;SDS011;61354;50.758;6.106;2023-04-24T09:31:26;8.88;;;4.55;;
73150;SDS011;61354;50.758;6.106;2023-04-24T09:36:31;5.90;;;3.47;;
73150;SDS011;61354;50.758;6.106;2023-04-24T09:39:02;8.00;;;4.18;;
73150;SDS011;61354;50.758;6.106;2023-04-24T09:41:31;7.55;;;4.30;;
73150;SDS011;61354;50.758;6.106;2023-04-24T09:44:01;8.13;;;4.22;;
73150;SDS011;61354;50.758;6.106;2023-04-24T09:49:10;8.18;;;3.80;;
73150;SDS011;61354;50.758;6.106;2023-04-24T09:51:37;6.38;;;3.38;;
73150;SDS011;61354;50.758;6.106;2023-04-24T09:54:04;7.50;;;4.22;;
73150;SDS011;61354;50.758;6.106;2023-04-24T09:56:36;7.25;;;4.20;;
73150;SDS011;61354;50.758;6.106;2023-04-24T09:59:07;7.57;;;3.67;;
73150;SDS011;61354;50.758;6.106;2023-04-24T10:01:33;4.90;;;2.78;;
73150;SDS011;61354;50.758;6.106;2023-04-24T10:03:59;7.95;;;3.60;;
73150;SDS011;61354;50.758;6.106;2023-04-24T10:06:32;5.53;;;3.25;;
73150;SDS011;61354;50.758;6.106;2023-04-24T10:08:59;6.22;;;3.03;;
73150;SDS011;61354;50.758;6.106;2023-04-24T10:11:28;7.55;;;3.28;;
73150;SDS011;61354;50.758;6.106;2023-04-24T10:13:55;8.10;;;3.60;;
73150;SDS011;61354;50.758;6.106;2023-04-24T10:16:22;4.57;;;2.88;;
73150;SDS011;61354;50.758;6.106;2023-04-24T10:18:48;8.20;;;2.30;;
73150;SDS011;61354;50.758;6.106;2023-04-24T10:21:15;5.10;;;2.72;;
73150;SDS011;61354;50.758;6.106;2023-04-24T10:23:41;7.07;;;3.33;;
73150;SDS011;61354;50.758;6.106;2023-04-24T10:26:10;7.35;;;3.80;;
73150;SDS011;61354;50.758;6.106;2023-04-24T10:28:44;5.97;;;3.33;;
73150;SDS011;61354;50.758;6.106;2023-04-24T10:31:11;5.05;;;3.13;;
73150;SDS011;61354;50.758;6.106;2023-04-24T10:33:38;6.70;;;3.90;;
73150;SDS011;61354;50.758;6.106;2023-04-24T10:36:08;10.35;;;3.85;;
73150;SDS011;61354;50.758;6.106;2023-04-24T10:38:35;6.53;;;3.60;;
73150;SDS011;61354;50.758;6.106;2023-04-24T10:41:12;9.07;;;4.15;;
73150;SDS011;61354;50.758;6.106;2023-04-24T10:43:45;6.97;;;3.63;;
73150;SDS011;61354;50.758;6.106;2023-04-24T10:46:11;7.70;;;4.22;;
73150;SDS011;61354;50.758;6.106;2023-04-24T10:48:52;6.30;;;3.10;;
73150;SDS011;61354;50.758;6.106;2023-04-24T10:51:22;10.70;;;4.38;;
73150;SDS011;61354;50.758;6.106;2023-04-24T10:53:50;7.40;;;4.32;;
73150;SDS011;61354;50.758;6.106;2023-04-24T10:56:16;6.72;;;3.90;;
73150;SDS011;61354;50.758;6.106;2023-04-24T10:58:52;6.97;;;4.05;;
73150;SDS011;61354;50.758;6.106;2023-04-24T11:01:25;8.50;;;4.03;;
73150;SDS011;61354;50.758;6.106;2023-04-24T11:03:58;8.88;;;4.57;;
73150;SDS011;61354;50.758;6.106;2023-04-24T11:06:35;8.65;;;4.30;;
73150;SDS011;61354;50.758;6.106;2023-04-24T11:09:03;7.80;;;4.43;;
73150;SDS011;61354;50.758;6.106;2023-04-24T11:11:32;7.22;;;4.18;;
73150;SDS011;61354;50.758;6.106;2023-04-24T11:19:20;9.30;;;4.53;;
73150;SDS011;61354;50.758;6.106;2023-04-24T11:21:48;9.43;;;4.65;;
73150;SDS011;61354;50.758;6.106;2023-04-24T11:26:57;7.72;;;4.25;;
73150;SDS011;61354;50.758;6.106;2023-04-24T11:29:23;6.47;;;3.70;;
73150;SDS011;61354;50.758;6.106;2023-04-24T11:34:54;4.80;;;2.67;;
73150;SDS011;61354;50.758;6.106;2023-04-24T11:37:22;6.47;;;3.05;;
73150;SDS011;61354;50.758;6.106;2023-04-24T11:40:09;9.43;;;4.22;;
73150;SDS011;61354;50.758;6.106;2023-04-24T11:45:07;8.25;;;3.88;;
73150;SDS011;61354;50.758;6.106;2023-04-24T11:47:36;8.82;;;3.90;;
73150;SDS011;61354;50.758;6.106;2023-04-24T11:50:03;7.50;;;3.25;;
73150;SDS011;61354;50.758;6.106;2023-04-24T11:52:30;6.55;;;3.33;;
73150;SDS011;61354;50.758;6.106;2023-04-24T11:54:56;7.22;;;3.42;;
73150;SDS011;61354;50.758;6.106;2023-04-24T11:57:23;8.82;;;4.13;;
73150;SDS011;61354;50.758;6.106;2023-04-24T11:59:51;6.28;;;3.10;;
73150;SDS011;61354;50.758;6.106;2023-04-24T12:02:23;6.35;;;3.45;;
73150;SDS011;61354;50.758;6.106;2023-04-24T12:04:51;6.35;;;3.30;;
73150;SDS011;61354;50.758;6.106;2023-04-24T12:07:18;7.30;;;3.10;;
73150;SDS011;61354;50.758;6.106;2023-04-24T12:09:44;5.32;;;3.33;;
73150;SDS011;61354;50.758;6.106;2023-04-24T12:12:15;5.95;;;3.35;;
73150;SDS011;61354;50.758;6.106;2023-04-24T12:14:49;8.25;;;3.92;;
73150;SDS011;61354;50.758;6.106;2023-04-24T12:17:17;6.00;;;2.83;;
73150;SDS011;61354;50.758;6.106;2023-04-24T12:19:46;6.35;;;3.55;;
73150;SDS011;61354;50.758;6.106;2023-04-24T12:22:13;6.53;;;3.90;;
73150;SDS011;61354;50.758;6.106;2023-04-24T12:27:23;5.25;;;3.08;;
73150;SDS011;61354;50.758;6.106;2023-04-24T12:29:53;5.53;;;2.92;;
73150;SDS011;61354;50.758;6.106;2023-04-24T12:32:20;7.68;;;3.17;;
73150;SDS011;61354;50.758;6.106;2023-04-24T12:34:46;5.30;;;3.13;;
73150;SDS011;61354;50.758;6.106;2023-04-24T12:37:12;6.35;;;3.40;;
73150;SDS011;61354;50.758;6.106;2023-04-24T12:39:37;6.03;;;3.20;;
73150;SDS011;61354;50.758;6.106;2023-04-24T12:42:03;9.13;;;3.67;;
73150;SDS011;61354;50.758;6.106;2023-04-24T12:44:32;7.82;;;3.88;;
73150;SDS011;61354;50.758;6.106;2023-04-24T12:47:00;9.23;;;3.00;;
73150;SDS011;61354;50.758;6.106;2023-04-24T12:49:26;6.85;;;3.25;;
73150;SDS011;61354;50.758;6.106;2023-04-24T12:51:52;8.00;;;3.42;;
73150;SDS011;61354;50.758;6.106;2023-04-24T12:54:18;4.78;;;2.67;;
73150;SDS011;61354;50.758;6.106;2023-04-24T12:56:44;7.22;;;3.10;;
73150;SDS011;61354;50.758;6.106;2023-04-24T12:59:09;6.00;;;3.08;;
73150;SDS011;61354;50.758;6.106;2023-04-24T13:01:35;5.80;;;2.83;;
73150;SDS011;61354;50.758;6.106;2023-04-24T13:04:00;6.13;;;3.08;;
73150;SDS011;61354;50.758;6.106;2023-04-24T13:06:26;6.50;;;2.97;;
73150;SDS011;61354;50.758;6.106;2023-04-24T13:08:52;6.47;;;3.42;;
73150;SDS011;61354;50.758;6.106;2023-04-24T13:11:20;6.68;;;3.13;;
73150;SDS011;61354;50.758;6.106;2023-04-24T13:13:47;7.47;;;3.33;;
73150;SDS011;61354;50.758;6.106;2023-04-24T13:16:13;5.35;;;2.97;;
73150;SDS011;61354;50.758;6.106;2023-04-24T13:18:38;5.63;;;2.70;;
73150;SDS011;61354;50.758;6.106;2023-04-24T13:21:04;4.70;;;2.55;;
73150;SDS011;61354;50.758;6.106;2023-04-24T13:23:29;8.05;;;3.22;;
73150;SDS011;61354;50.758;6.106;2023-04-24T13:25:55;6.47;;;3.47;;
73150;SDS011;61354;50.758;6.106;2023-04-24T13:28:26;5.60;;;3.03;;
73150;SDS011;61354;50.758;6.106;2023-04-24T13:30:52;7.05;;;3.60;;
73150;SDS011;61354;50.758;6.106;2023-04-24T13:33:18;5.95;;;3.50;;
73150;SDS011;61354;50.758;6.106;2023-04-24T13:35:44;6.43;;;3.38;;
73150;SDS011;61354;50.758;6.106;2023-04-24T13:38:09;6.32;;;2.97;;
73150;SDS011;61354;50.758;6.106;2023-04-24T13:40:35;7.05;;;3.92;;
73150;SDS011;61354;50.758;6.106;2023-04-24T13:43:01;9.57;;;3.30;;
73150;SDS011;61354;50.758;6.106;2023-04-24T13:45:26;6.70;;;3.25;;
73150;SDS011;61354;50.758;6.106;2023-04-24T13:47:52;5.53;;;3.35;;
73150;SDS011;61354;50.758;6.106;2023-04-24T13:50:22;6.38;;;3.20;;
73150;SDS011;61354;50.758;6.106;2023-04-24T13:52:48;6.45;;;3.47;;
73150;SDS011;61354;50.758;6.106;2023-04-24T13:55:13;6.00;;;3.08;;
73150;SDS011;61354;50.758;6.106;2023-04-24T13:57:39;6.82;;;3.33;;
73150;SDS011;61354;50.758;6.106;2023-04-24T14:00:05;6.13;;;2.83;;
73150;SDS011;61354;50.758;6.106;2023-04-24T14:02:35;5.72;;;3.10;;
73150;SDS011;61354;50.758;6.106;2023-04-24T14:05:01;7.30;;;3.33;;
73150;SDS011;61354;50.758;6.106;2023-04-24T14:07:28;3.97;;;2.33;;
73150;SDS011;61354;50.758;6.106;2023-04-24T14:09:54;7.22;;;3.35;;
73150;SDS011;61354;50.758;6.106;2023-04-24T14:12:19;5.55;;;2.95;;
73150;SDS011;61354;50.758;6.106;2023-04-24T14:14:46;8.50;;;3.85;;
73150;SDS011;61354;50.758;6.106;2023-04-24T14:17:13;6.80;;;3.80;;
73150;SDS011;61354;50.758;6.106;2023-04-24T14:19:39;6.50;;;3.17;;
73150;SDS011;61354;50.758;6.106;2023-04-24T14:22:05;7.53;;;3.80;;
73150;SDS011;61354;50.758;6.106;2023-04-24T14:24:30;6.50;;;3.42;;
73150;SDS011;61354;50.758;6.106;2023-04-24T14:26:56;4.85;;;2.88;;
73150;SDS011;61354;50.758;6.106;2023-04-24T14:29:22;5.10;;;3.40;;
73150;SDS011;61354;50.758;6.106;2023-04-24T14:31:48;6.10;;;2.97;;
73150;SDS011;61354;50.758;6.106;2023-04-24T14:37:10;4.30;;;2.33;;
73150;SDS011;61354;50.758;6.106;2023-04-24T14:39:35;5.30;;;3.25;;
73150;SDS011;61354;50.758;6.106;2023-04-24T14:42:01;6.10;;;2.65;;
73150;SDS011;61354;50.758;6.106;2023-04-24T14:44:26;6.47;;;3.20;;
73150;SDS011;61354;50.758;6.106;2023-04-24T14:46:52;4.55;;;2.95;;
73150;SDS011;61354;50.758;6.106;2023-04-24T14:52:09;5.82;;;3.10;;
73150;SDS011;61354;50.758;6.106;2023-04-24T14:54:35;5.45;;;3.15;;
73150;SDS011;61354;50.758;6.106;2023-04-24T14:57:01;3.88;;;2.33;;
73150;SDS011;61354;50.758;6.106;2023-04-24T14:59:27;6.95;;;2.83;;
73150;SDS011;61354;50.758;6.106;2023-04-24T15:01:54;5.60;;;2.90;;
73150;SDS011;61354;50.758;6.106;2023-04-24T15:04:26;6.22;;;3.10;;
73150;SDS011;61354;50.758;6.106;2023-04-24T15:06:53;6.00;;;2.85;;
73150;SDS011;61354;50.758;6.106;2023-04-24T15:09:19;4.88;;;2.67;;
73150;SDS011;61354;50.758;6.106;2023-04-24T15:11:47;3.55;;;1.92;;